Time;durP1;ratioP1;P1;durP2;ratioP2;P2;SDS_P1;SDS_P2;PMS_P1;PMS_P2;Temp;Humidity;BMP_temperature;BMP_pressure;BME280_temperature;BME280_humidity;BME280_pressure;Samples;Min_cycle;Max_cycle;Signal;HPM_P1;HPM_P2
2024/05/04 00:01:18;;;;;;;;;;;15.50;65.20;;;;;;4352234;27;19982;-83
2024/05/04 00:03:37;;;;;;;;;;;15.50;65.40;;;;;;4336092;27;20422;-83
2024/05/04 00:05:57;;;;;;;;;;;15.50;65.40;;;;;;4377712;26;20988;-80
2024/05/04 00:08:16;;;;;;;;;;;15.50;65.20;;;;;;4328420;27;19946;-82
2024/05/04 00:10:35;;;;;;;;;;;15.50;65.30;;;;;;4311431;27;19932;-83
2024/05/04 00:12:55;;;;;;;;;;;15.50;65.30;;;;;;4348785;27;19931;-85
2024/05/04 00:15:14;;;;;;;;;;;15.50;65.10;;;;;;4332936;27;19935;-82
2024/05/04 00:17:33;;;;;;;;;;;15.50;65.00;;;;;;4304920;27;20427;-82
2024/05/04 00:19:52;;;;;;;;;;;15.50;65.20;;;;;;4366509;27;19934;-83
2024/05/04 00:22:12;;;;;;;;;;;15.50;65.20;;;;;;4324153;27;20730;-84
2024/05/04 00:24:31;;;;;;;;;;;15.60;65.30;;;;;;4343955;27;19940;-86
2024/05/04 00:26:51;;;;;;;;;;;15.40;65.30;;;;;;4355626;26;20686;-81
2024/05/04 00:29:10;;;;;;;;;;;15.40;65.30;;;;;;4355303;26;19946;-84
2024/05/04 00:31:29;;;;;;;;;;;15.40;65.40;;;;;;4317065;27;20382;-81
2024/05/04 00:33:49;;;;;;;;;;;15.50;65.60;;;;;;4359397;27;20005;-84
2024/05/04 00:36:08;;;;;;;;;;;15.40;65.40;;;;;;4373511;26;20062;-84
2024/05/04 00:38:27;;;;;;;;;;;15.40;65.50;;;;;;4322969;27;20414;-83
2024/05/04 00:40:48;;;;;;;;;;;15.40;65.60;;;;;;4362554;27;20037;-82
2024/05/04 00:43:11;;;;;;;;;;;15.40;65.50;;;;;;4297143;27;20361;-87
2024/05/04 00:45:30;;;;;;;;;;;15.40;65.60;;;;;;4356157;27;20267;-84
2024/05/04 00:47:49;;;;;;;;;;;15.40;65.50;;;;;;4349284;27;19931;-81
2024/05/04 00:50:09;;;;;;;;;;;15.40;65.60;;;;;;4328598;27;20246;-84
2024/05/04 00:52:29;;;;;;;;;;;15.50;65.70;;;;;;4348050;27;19939;-86
2024/05/04 00:54:50;;;;;;;;;;;15.40;65.50;;;;;;4361479;26;20467;-84
2024/05/04 00:57:09;;;;;;;;;;;15.40;64.90;;;;;;4328700;27;20066;-83
2024/05/04 00:59:29;;;;;;;;;;;15.30;64.70;;;;;;4376165;26;19934;-81
2024/05/04 01:01:48;;;;;;;;;;;15.40;64.60;;;;;;4352239;27;20277;-83
2024/05/04 01:04:08;;;;;;;;;;;15.20;64.80;;;;;;4350632;27;20014;-82
2024/05/04 01:06:27;;;;;;;;;;;15.20;65.20;;;;;;4319813;27;19938;-83
2024/05/04 01:08:46;;;;;;;;;;;15.10;65.30;;;;;;4317725;27;19936;-82
2024/05/04 01:11:08;;;;;;;;;;;15.10;65.60;;;;;;4344989;27;19931;-83
2024/05/04 01:13:28;;;;;;;;;;;15.10;65.50;;;;;;4349748;27;19935;-82
2024/05/04 01:15:47;;;;;;;;;;;15.50;65.90;;;;;;4335417;27;20542;-83
2024/05/04 01:18:07;;;;;;;;;;;15.10;65.70;;;;;;4330896;27;20378;-84
2024/05/04 01:20:26;;;;;;;;;;;15.10;65.80;;;;;;4354910;27;20251;-83
2024/05/04 01:22:45;;;;;;;;;;;15.10;65.80;;;;;;4329110;27;19979;-83
2024/05/04 01:25:05;;;;;;;;;;;15.00;65.90;;;;;;4354241;27;20337;-82
2024/05/04 01:27:24;;;;;;;;;;;15.10;65.80;;;;;;4316056;27;20374;-81
2024/05/04 01:29:44;;;;;;;;;;;15.20;66.00;;;;;;4346692;27;19932;-83
2024/05/04 01:32:03;;;;;;;;;;;15.10;65.90;;;;;;4347984;27;19931;-83
2024/05/04 01:34:22;;;;;;;;;;;15.10;65.90;;;;;;4354740;27;20130;-80
2024/05/04 01:36:42;;;;;;;;;;;15.10;66.00;;;;;;4314777;27;19936;-85
2024/05/04 01:39:05;;;;;;;;;;;15.20;66.00;;;;;;4356484;27;19947;-83
2024/05/04 01:41:29;;;;;;;;;;;15.10;65.90;;;;;;4334251;27;19954;-81
2024/05/04 01:43:48;;;;;;;;;;;15.10;66.00;;;;;;4311991;27;19950;-83
2024/05/04 01:46:08;;;;;;;;;;;15.10;66.00;;;;;;4321598;27;19931;-81
2024/05/04 01:48:27;;;;;;;;;;;15.10;66.00;;;;;;4303449;27;19968;-85
2024/05/04 01:50:46;;;;;;;;;;;15.10;66.10;;;;;;4360403;27;19941;-83
2024/05/04 01:53:06;;;;;;;;;;;15.20;66.20;;;;;;4355697;27;19981;-83
2024/05/04 01:55:26;;;;;;;;;;;15.20;66.20;;;;;;4328041;27;19932;-83
2024/05/04 01:57:46;;;;;;;;;;;15.20;66.10;;;;;;4374363;26;20015;-84
2024/05/04 02:00:07;;;;;;;;;;;15.20;66.20;;;;;;4315865;27;19943;-80
2024/05/04 02:02:30;;;;;;;;;;;15.20;66.10;;;;;;4325720;27;19942;-82
2024/05/04 02:04:50;;;;;;;;;;;15.20;66.20;;;;;;4358366;27;19943;-81
2024/05/04 02:07:10;;;;;;;;;;;15.20;66.30;;;;;;4326090;27;20149;-81
2024/05/04 02:09:29;;;;;;;;;;;15.20;66.50;;;;;;4332293;27;19935;-83
2024/05/04 02:11:49;;;;;;;;;;;15.20;66.50;;;;;;4330550;27;19931;-82
2024/05/04 02:14:08;;;;;;;;;;;15.20;66.40;;;;;;4321157;27;19932;-84
2024/05/04 02:16:28;;;;;;;;;;;15.20;65.60;;;;;;4355236;27;20754;-84
2024/05/04 02:18:47;;;;;;;;;;;15.20;65.70;;;;;;4329845;27;19931;-84
2024/05/04 02:21:08;;;;;;;;;;;15.20;66.00;;;;;;4351779;27;19943;-82
2024/05/04 02:23:33;;;;;;;;;;;15.20;66.00;;;;;;4346435;27;19935;-85
2024/05/04 02:25:52;;;;;;;;;;;15.20;65.50;;;;;;4357715;27;19935;-83
2024/05/04 02:28:11;;;;;;;;;;;15.20;65.50;;;;;;4355819;27;20369;-83
2024/05/04 02:30:31;;;;;;;;;;;15.10;65.90;;;;;;4351691;27;20376;-82
2024/05/04 02:32:51;;;;;;;;;;;15.10;66.10;;;;;;4331403;27;20070;-81
2024/05/04 02:35:10;;;;;;;;;;;15.10;66.10;;;;;;4349948;27;20430;-84
2024/05/04 02:37:29;;;;;;;;;;;15.10;66.00;;;;;;4351850;26;19932;-82
2024/05/04 02:39:48;;;;;;;;;;;15.10;66.20;;;;;;4343990;27;20428;-83
2024/05/04 02:42:08;;;;;;;;;;;15.10;66.30;;;;;;4346838;27;19946;-83
2024/05/04 02:44:29;;;;;;;;;;;15.10;66.40;;;;;;4348433;27;20171;-84
2024/05/04 02:46:48;;;;;;;;;;;15.10;67.20;;;;;;4350485;26;20578;-82
2024/05/04 02:49:08;;;;;;;;;;;15.20;66.40;;;;;;4355062;27;20459;-82
2024/05/04 02:51:28;;;;;;;;;;;15.20;66.30;;;;;;4351324;27;20399;-86
2024/05/04 02:53:47;;;;;;;;;;;15.20;66.30;;;;;;4332670;27;19931;-83
2024/05/04 02:56:07;;;;;;;;;;;15.10;66.10;;;;;;4330361;27;19943;-84
2024/05/04 02:58:25;;;;;;;;;;;15.00;66.00;;;;;;4322895;27;19932;-82
2024/05/04 03:00:45;;;;;;;;;;;15.00;66.10;;;;;;4352472;27;20018;-82
2024/05/04 03:03:05;;;;;;;;;;;15.00;66.10;;;;;;4344578;27;20497;-83
2024/05/04 03:05:24;;;;;;;;;;;15.00;66.30;;;;;;4345053;27;19938;-84
2024/05/04 03:07:44;;;;;;;;;;;15.00;66.40;;;;;;4324212;27;19984;-84
2024/05/04 03:10:03;;;;;;;;;;;14.90;66.40;;;;;;4345702;27;19931;-82
2024/05/04 03:12:22;;;;;;;;;;;14.90;66.40;;;;;;4366820;26;20193;-83
2024/05/04 03:14:41;;;;;;;;;;;14.90;66.50;;;;;;4339179;27;19931;-82
2024/05/04 03:17:01;;;;;;;;;;;15.30;66.60;;;;;;4316059;27;19932;-83
2024/05/04 03:19:21;;;;;;;;;;;15.00;66.60;;;;;;4351649;27;19931;-83
2024/05/04 03:21:40;;;;;;;;;;;15.00;66.60;;;;;;4325614;27;19932;-82
2024/05/04 03:23:59;;;;;;;;;;;15.00;66.60;;;;;;4342857;27;19935;-83
2024/05/04 03:26:19;;;;;;;;;;;15.00;66.50;;;;;;4346313;27;19934;-83
2024/05/04 03:28:40;;;;;;;;;;;15.00;66.60;;;;;;4321515;27;19944;-81
2024/05/04 03:30:59;;;;;;;;;;;14.90;66.60;;;;;;4327411;27;19951;-85
2024/05/04 03:33:18;;;;;;;;;;;15.00;66.70;;;;;;4334741;27;19932;-83
2024/05/04 03:35:38;;;;;;;;;;;15.10;66.80;;;;;;4331506;27;19936;-81
2024/05/04 03:37:57;;;;;;;;;;;15.00;66.80;;;;;;4333386;26;20258;-82
2024/05/04 03:40:17;;;;;;;;;;;15.00;66.70;;;;;;4348087;27;19936;-85
2024/05/04 03:42:37;;;;;;;;;;;15.00;66.70;;;;;;4320294;27;19939;-83
2024/05/04 03:44:57;;;;;;;;;;;15.00;66.70;;;;;;4373984;26;19931;-82
2024/05/04 03:47:16;;;;;;;;;;;14.90;66.60;;;;;;4345498;27;19939;-83
2024/05/04 03:49:37;;;;;;;;;;;14.90;66.70;;;;;;4345221;27;19963;-84
2024/05/04 03:51:56;;;;;;;;;;;14.90;66.80;;;;;;4322139;27;19944;-84
2024/05/04 03:54:15;;;;;;;;;;;14.90;66.80;;;;;;4347913;27;19960;-84
2024/05/04 03:56:34;;;;;;;;;;;14.90;66.80;;;;;;4334907;27;19964;-82
2024/05/04 03:58:54;;;;;;;;;;;14.90;66.80;;;;;;4348581;27;19950;-85
2024/05/04 04:01:13;;;;;;;;;;;15.00;66.90;;;;;;4380337;26;19935;-83
2024/05/04 04:03:33;;;;;;;;;;;15.00;66.90;;;;;;4356569;27;20206;-85
2024/05/04 04:05:52;;;;;;;;;;;15.00;67.00;;;;;;4355697;26;20097;-84
2024/05/04 04:08:12;;;;;;;;;;;15.00;67.00;;;;;;4380165;26;20399;-84
2024/05/04 04:10:31;;;;;;;;;;;15.00;67.10;;;;;;4357193;26;19938;-84
2024/05/04 04:12:51;;;;;;;;;;;15.10;67.20;;;;;;4312593;27;20000;-81
2024/05/04 04:15:10;;;;;;;;;;;15.10;67.20;;;;;;4348776;27;20015;-84
2024/05/04 04:17:29;;;;;;;;;;;15.10;67.10;;;;;;4335487;27;20003;-83
2024/05/04 04:19:48;;;;;;;;;;;15.10;67.10;;;;;;4341136;27;19938;-82
2024/05/04 04:22:08;;;;;;;;;;;15.20;67.20;;;;;;4350325;27;19938;-83
2024/05/04 04:24:27;;;;;;;;;;;15.10;67.10;;;;;;4336809;27;20335;-83
2024/05/04 04:26:46;;;;;;;;;;;15.20;67.10;;;;;;4350179;27;19978;-82
2024/05/04 04:29:06;;;;;;;;;;;15.10;67.00;;;;;;4338883;27;20290;-83
2024/05/04 04:31:25;;;;;;;;;;;15.30;67.20;;;;;;4344688;27;19946;-83
2024/05/04 04:33:44;;;;;;;;;;;15.20;67.20;;;;;;4315745;27;20473;-83
2024/05/04 04:36:04;;;;;;;;;;;15.10;67.10;;;;;;4352387;27;19935;-83
2024/05/04 04:38:24;;;;;;;;;;;15.20;67.20;;;;;;4331947;27;21645;-83
2024/05/04 04:40:43;;;;;;;;;;;15.20;67.20;;;;;;4326914;27;19944;-82
2024/05/04 04:43:02;;;;;;;;;;;15.20;67.20;;;;;;4344905;27;19939;-83
2024/05/04 04:45:22;;;;;;;;;;;15.20;67.30;;;;;;4333486;27;19931;-82
2024/05/04 04:47:41;;;;;;;;;;;15.20;67.40;;;;;;4362877;27;20397;-83
2024/05/04 04:50:01;;;;;;;;;;;15.30;67.60;;;;;;4357798;27;19938;-83
2024/05/04 04:52:20;;;;;;;;;;;15.20;67.30;;;;;;4331194;27;20000;-82
2024/05/04 04:54:39;;;;;;;;;;;15.30;67.50;;;;;;4354144;27;20027;-82
2024/05/04 04:56:59;;;;;;;;;;;15.30;67.30;;;;;;4363873;26;19943;-83
2024/05/04 04:59:19;;;;;;;;;;;15.30;67.50;;;;;;4332145;27;19938;-83
2024/05/04 05:01:40;;;;;;;;;;;15.30;67.30;;;;;;4330508;27;20436;-82
2024/05/04 05:03:59;;;;;;;;;;;15.30;67.40;;;;;;4350716;27;20347;-82
2024/05/04 05:06:19;;;;;;;;;;;15.40;67.50;;;;;;4354396;27;19975;-84
2024/05/04 05:08:38;;;;;;;;;;;15.40;67.50;;;;;;4335697;27;19935;-82
2024/05/04 05:10:58;;;;;;;;;;;15.40;67.40;;;;;;4348680;27;20010;-83
2024/05/04 05:13:17;;;;;;;;;;;15.40;67.50;;;;;;4324856;27;20008;-83
2024/05/04 05:15:36;;;;;;;;;;;15.50;67.40;;;;;;4322458;27;20417;-84
2024/05/04 05:17:55;;;;;;;;;;;15.60;67.40;;;;;;4318016;27;20483;-84
2024/05/04 05:20:15;;;;;;;;;;;15.50;67.40;;;;;;4353813;27;20401;-84
2024/05/04 05:22:34;;;;;;;;;;;15.50;67.40;;;;;;4351606;27;19959;-84
2024/05/04 05:24:53;;;;;;;;;;;15.50;67.40;;;;;;4336986;27;19943;-83
2024/05/04 05:27:12;;;;;;;;;;;15.50;67.30;;;;;;4315261;27;19939;-83
2024/05/04 05:29:31;;;;;;;;;;;15.50;67.40;;;;;;4315072;27;20466;-83
2024/05/04 05:31:51;;;;;;;;;;;15.50;67.40;;;;;;4325620;27;19936;-82
2024/05/04 05:34:10;;;;;;;;;;;15.60;67.40;;;;;;4332902;27;20186;-84
2024/05/04 05:36:30;;;;;;;;;;;15.60;67.40;;;;;;4310961;27;20394;-84
2024/05/04 05:38:50;;;;;;;;;;;15.60;67.40;;;;;;4344913;27;20051;-81
2024/05/04 05:41:09;;;;;;;;;;;15.60;67.30;;;;;;4347904;27;19939;-81
2024/05/04 05:43:29;;;;;;;;;;;15.60;67.40;;;;;;4327363;27;20063;-84
2024/05/04 05:45:49;;;;;;;;;;;15.60;67.40;;;;;;4350071;26;19935;-83
2024/05/04 05:48:08;;;;;;;;;;;15.60;67.50;;;;;;4333578;27;19943;-84
2024/05/04 05:50:28;;;;;;;;;;;15.60;67.40;;;;;;4311942;27;19964;-84
2024/05/04 05:52:47;;;;;;;;;;;15.60;67.30;;;;;;4344956;27;19950;-84
2024/05/04 05:55:09;;;;;;;;;;;15.80;67.50;;;;;;4352878;27;20535;-83
2024/05/04 05:57:28;;;;;;;;;;;15.60;67.50;;;;;;4350870;27;19986;-83
2024/05/04 05:59:48;;;;;;;;;;;15.60;67.40;;;;;;4333519;26;20550;-85
2024/05/04 06:02:07;;;;;;;;;;;15.70;67.60;;;;;;4313347;27;19940;-82
2024/05/04 06:04:26;;;;;;;;;;;15.70;67.50;;;;;;4347472;27;19939;-84
2024/05/04 06:06:46;;;;;;;;;;;15.70;67.50;;;;;;4350608;27;20017;-83
2024/05/04 06:09:05;;;;;;;;;;;16.00;67.70;;;;;;4357920;26;19982;-89
2024/05/04 06:11:25;;;;;;;;;;;15.80;67.50;;;;;;4327935;27;19936;-84
2024/05/04 06:13:44;;;;;;;;;;;15.90;67.60;;;;;;4351326;27;20480;-85
2024/05/04 06:16:04;;;;;;;;;;;16.00;67.70;;;;;;4350604;26;19939;-85
2024/05/04 06:18:23;;;;;;;;;;;16.00;67.60;;;;;;4313096;27;19932;-86
2024/05/04 06:20:44;;;;;;;;;;;16.10;67.70;;;;;;4326046;27;19931;-84
2024/05/04 06:23:07;;;;;;;;;;;16.10;67.60;;;;;;4322712;27;20513;-84
2024/05/04 06:25:27;;;;;;;;;;;16.20;67.50;;;;;;4350842;27;19939;-85
2024/05/04 06:27:49;;;;;;;;;;;16.30;67.40;;;;;;4323622;27;20405;-85
2024/05/04 06:30:09;;;;;;;;;;;16.30;67.50;;;;;;4337970;27;19931;-83
2024/05/04 06:32:28;;;;;;;;;;;16.40;67.70;;;;;;4335059;27;19939;-85
2024/05/04 06:34:47;;;;;;;;;;;16.40;67.70;;;;;;4330997;27;19942;-86
2024/05/04 06:37:07;;;;;;;;;;;16.50;67.60;;;;;;4323726;27;19939;-84
2024/05/04 06:39:27;;;;;;;;;;;16.50;67.50;;;;;;4322927;27;19944;-84
2024/05/04 06:41:46;;;;;;;;;;;16.50;67.50;;;;;;4330828;27;20341;-84
2024/05/04 06:44:06;;;;;;;;;;;16.70;67.70;;;;;;4310487;27;19939;-86
2024/05/04 06:46:25;;;;;;;;;;;16.80;68.00;;;;;;4352931;27;20583;-84
2024/05/04 06:48:44;;;;;;;;;;;16.90;68.00;;;;;;4321291;27;20002;-85
2024/05/04 06:51:04;;;;;;;;;;;17.00;67.70;;;;;;4335475;27;19931;-84
2024/05/04 06:53:23;;;;;;;;;;;17.10;67.50;;;;;;4357376;27;19934;-85
2024/05/04 06:55:42;;;;;;;;;;;17.10;67.90;;;;;;4350742;27;19946;-83
2024/05/04 06:58:02;;;;;;;;;;;17.30;67.50;;;;;;4340706;27;19967;-85
2024/05/04 07:00:21;;;;;;;;;;;17.30;67.30;;;;;;4346887;27;20321;-83
2024/05/04 07:02:42;;;;;;;;;;;17.40;67.10;;;;;;4343865;27;20030;-84
2024/05/04 07:05:02;;;;;;;;;;;17.50;67.10;;;;;;4351969;27;19946;-83
2024/05/04 07:07:21;;;;;;;;;;;17.90;67.00;;;;;;4351586;26;19942;-84
2024/05/04 07:09:40;;;;;;;;;;;17.60;66.70;;;;;;4302255;27;20019;-83
2024/05/04 07:11:59;;;;;;;;;;;17.60;66.40;;;;;;4308388;27;20544;-84
2024/05/04 07:14:21;;;;;;;;;;;17.70;66.50;;;;;;4382220;26;20179;-85
2024/05/04 07:16:41;;;;;;;;;;;17.70;66.40;;;;;;4351880;27;20233;-83
2024/05/04 07:19:01;;;;;;;;;;;17.70;66.50;;;;;;4345079;27;19949;-82
2024/05/04 07:21:20;;;;;;;;;;;17.80;66.60;;;;;;4359331;26;20424;-83
2024/05/04 07:23:39;;;;;;;;;;;18.00;66.70;;;;;;4349800;27;20427;-83
2024/05/04 07:25:58;;;;;;;;;;;18.10;66.90;;;;;;4350171;27;19939;-83
2024/05/04 07:28:17;;;;;;;;;;;18.20;66.90;;;;;;4340785;27;20023;-83
2024/05/04 07:30:37;;;;;;;;;;;18.40;66.90;;;;;;4327473;27;19932;-82
2024/05/04 07:32:56;;;;;;;;;;;18.50;66.80;;;;;;4383269;26;19930;-83
2024/05/04 07:35:15;;;;;;;;;;;18.70;66.50;;;;;;4351597;27;19983;-83
2024/05/04 07:37:35;;;;;;;;;;;18.80;66.50;;;;;;4322048;27;19943;-81
2024/05/04 07:39:55;;;;;;;;;;;18.90;66.20;;;;;;4296498;27;20133;-83
2024/05/04 07:42:14;;;;;;;;;;;19.00;65.90;;;;;;4328525;27;20014;-81
2024/05/04 07:44:34;;;;;;;;;;;19.10;65.70;;;;;;4326731;27;20349;-82
2024/05/04 07:46:57;;;;;;;;;;;19.20;65.30;;;;;;4337880;27;19971;-82
2024/05/04 07:49:16;;;;;;;;;;;19.30;65.20;;;;;;4328012;27;19931;-83
2024/05/04 07:51:36;;;;;;;;;;;19.40;65.00;;;;;;4346393;27;20403;-83
2024/05/04 07:53:55;;;;;;;;;;;19.40;64.90;;;;;;4346134;27;20484;-84
2024/05/04 07:56:14;;;;;;;;;;;19.50;65.00;;;;;;4379036;26;19934;-82
2024/05/04 07:58:33;;;;;;;;;;;19.50;64.80;;;;;;4354045;27;19931;-82
2024/05/04 08:00:53;;;;;;;;;;;19.60;64.70;;;;;;4347652;27;19931;-82
2024/05/04 08:03:12;;;;;;;;;;;19.70;64.60;;;;;;4341667;27;19935;-82
2024/05/04 08:05:31;;;;;;;;;;;19.80;64.40;;;;;;4322036;27;19931;-83
2024/05/04 08:07:51;;;;;;;;;;;19.80;64.40;;;;;;4392559;26;19938;-82
2024/05/04 08:10:10;;;;;;;;;;;19.90;64.20;;;;;;4360845;27;19949;-82
2024/05/04 08:12:30;;;;;;;;;;;20.00;64.10;;;;;;4350448;27;19991;-84
2024/05/04 08:14:49;;;;;;;;;;;20.00;64.00;;;;;;4377908;26;19930;-84
2024/05/04 08:17:08;;;;;;;;;;;20.10;64.00;;;;;;4353678;27;20025;-83
2024/05/04 08:19:28;;;;;;;;;;;20.10;63.80;;;;;;4346073;26;20312;-83
2024/05/04 08:21:47;;;;;;;;;;;20.10;63.70;;;;;;4344863;27;19950;-84
2024/05/04 08:24:10;;;;;;;;;;;20.20;63.50;;;;;;4348067;27;19939;-84
2024/05/04 08:26:29;;;;;;;;;;;20.20;63.40;;;;;;4317544;27;20302;-83
2024/05/04 08:28:50;;;;;;;;;;;20.30;63.50;;;;;;4372930;27;21033;-83
2024/05/04 08:31:09;;;;;;;;;;;20.30;63.20;;;;;;4378351;27;19931;-81
2024/05/04 08:33:29;;;;;;;;;;;20.30;63.00;;;;;;4329168;27;19975;-82
2024/05/04 08:35:48;;;;;;;;;;;20.30;62.90;;;;;;4307672;27;19947;-83
2024/05/04 08:38:10;;;;;;;;;;;20.30;63.10;;;;;;4348391;27;19943;-82
2024/05/04 08:40:29;;;;;;;;;;;20.40;62.90;;;;;;4326165;27;19938;-83
2024/05/04 08:42:49;;;;;;;;;;;20.50;63.00;;;;;;4350710;27;20194;-82
2024/05/04 08:45:10;;;;;;;;;;;20.60;63.20;;;;;;4372812;26;19983;-82
2024/05/04 08:47:30;;;;;;;;;;;20.70;63.30;;;;;;4340836;27;20345;-83
2024/05/04 08:49:50;;;;;;;;;;;20.80;63.50;;;;;;4352125;27;19931;-83
2024/05/04 08:52:11;;;;;;;;;;;21.00;62.80;;;;;;4348622;27;20036;-81
2024/05/04 08:54:31;;;;;;;;;;;21.10;62.80;;;;;;4373351;26;20458;-82
2024/05/04 08:56:50;;;;;;;;;;;21.20;62.50;;;;;;4344824;27;19931;-84
2024/05/04 08:59:10;;;;;;;;;;;21.40;62.40;;;;;;4329290;27;19932;-83
2024/05/04 09:01:30;;;;;;;;;;;21.50;62.00;;;;;;4352825;27;19963;-84
2024/05/04 09:03:51;;;;;;;;;;;21.60;62.50;;;;;;4331959;27;19931;-82
2024/05/04 09:06:10;;;;;;;;;;;21.60;61.90;;;;;;4350128;27;20487;-84
2024/05/04 09:08:30;;;;;;;;;;;21.70;61.40;;;;;;4330398;27;19939;-83
2024/05/04 09:10:49;;;;;;;;;;;21.70;61.30;;;;;;4353289;27;19945;-83
2024/05/04 09:13:08;;;;;;;;;;;21.70;61.40;;;;;;4382444;26;19935;-84
2024/05/04 09:15:30;;;;;;;;;;;21.80;61.50;;;;;;4343025;27;19947;-84
2024/05/04 09:17:50;;;;;;;;;;;21.90;61.20;;;;;;4364511;26;19938;-81
2024/05/04 09:20:09;;;;;;;;;;;21.90;59.60;;;;;;4333217;27;20022;-83
2024/05/04 09:22:28;;;;;;;;;;;22.00;60.60;;;;;;4350245;27;19935;-84
2024/05/04 09:24:48;;;;;;;;;;;22.10;61.10;;;;;;4354594;27;19936;-82
2024/05/04 09:27:07;;;;;;;;;;;22.20;61.00;;;;;;4342887;27;19947;-81
2024/05/04 09:29:36;;;;;;;;;;;22.30;60.80;;;;;;4354082;27;19942;-82
2024/05/04 09:31:55;;;;;;;;;;;22.30;60.80;;;;;;4341724;26;20269;-81
2024/05/04 09:34:16;;;;;;;;;;;22.40;60.50;;;;;;4343906;27;19935;-84
2024/05/04 09:36:35;;;;;;;;;;;22.40;60.30;;;;;;4319142;27;19931;-81
2024/05/04 09:38:56;;;;;;;;;;;22.50;60.40;;;;;;4345372;26;19947;-83
2024/05/04 09:41:16;;;;;;;;;;;22.50;60.10;;;;;;4350042;27;19943;-82
2024/05/04 09:43:37;;;;;;;;;;;22.50;60.10;;;;;;4372917;26;19930;-82
2024/05/04 09:46:11;;;;;;;;;;;22.50;60.10;;;;;;4360570;27;19977;-83
2024/05/04 09:48:34;;;;;;;;;;;22.50;60.10;;;;;;4376679;26;19954;-83
2024/05/04 09:50:54;;;;;;;;;;;22.50;59.90;;;;;;4357278;27;19935;-84
2024/05/04 09:53:13;;;;;;;;;;;22.50;59.30;;;;;;4339776;27;20372;-83
2024/05/04 09:55:35;;;;;;;;;;;22.50;59.60;;;;;;4339654;27;19939;-80
2024/05/04 09:57:54;;;;;;;;;;;22.50;59.60;;;;;;4355668;27;19938;-82
2024/05/04 10:00:14;;;;;;;;;;;22.60;59.80;;;;;;4345303;27;19931;-83
2024/05/04 10:02:35;;;;;;;;;;;22.50;59.70;;;;;;4320972;27;19943;-83
2024/05/04 10:04:56;;;;;;;;;;;22.50;59.80;;;;;;4356823;27;19939;-81
2024/05/04 10:07:17;;;;;;;;;;;22.60;59.60;;;;;;4320891;27;19948;-83
2024/05/04 10:09:52;;;;;;;;;;;22.60;59.70;;;;;;4345503;27;19931;-82
2024/05/04 10:12:11;;;;;;;;;;;22.70;59.70;;;;;;4381461;26;19967;-83
2024/05/04 10:14:30;;;;;;;;;;;22.70;59.80;;;;;;4348312;27;20524;-83
2024/05/04 10:16:50;;;;;;;;;;;22.70;60.10;;;;;;4374336;26;19945;-81
2024/05/04 10:19:22;;;;;;;;;;;22.80;59.90;;;;;;4380197;27;21210;-81
2024/05/04 10:21:42;;;;;;;;;;;22.80;59.40;;;;;;4379489;26;19942;-83
2024/05/04 10:24:01;;;;;;;;;;;22.90;59.50;;;;;;4336219;27;19936;-82
2024/05/04 10:26:26;;;;;;;;;;;22.90;59.20;;;;;;4351398;27;20435;-82
2024/05/04 10:28:56;;;;;;;;;;;23.00;59.60;;;;;;4360827;27;19931;-82
2024/05/04 10:31:16;;;;;;;;;;;23.00;59.40;;;;;;4333212;27;19942;-83
2024/05/04 10:33:35;;;;;;;;;;;23.10;59.50;;;;;;4361644;27;19942;-83
2024/05/04 10:35:55;;;;;;;;;;;23.10;59.60;;;;;;4323772;27;19931;-82
2024/05/04 10:38:14;;;;;;;;;;;23.00;59.30;;;;;;4320895;27;19943;-82
2024/05/04 10:40:42;;;;;;;;;;;23.00;59.30;;;;;;4353946;26;19946;-83
2024/05/04 10:43:01;;;;;;;;;;;22.90;59.40;;;;;;4307813;27;19932;-82
2024/05/04 10:45:21;;;;;;;;;;;23.00;59.40;;;;;;4325542;27;20250;-82
2024/05/04 10:47:40;;;;;;;;;;;23.00;58.90;;;;;;4329371;27;19935;-83
2024/05/04 10:50:01;;;;;;;;;;;23.10;58.90;;;;;;4357132;27;19931;-83
2024/05/04 10:52:20;;;;;;;;;;;23.30;59.00;;;;;;4354339;27;19935;-83
2024/05/04 10:54:40;;;;;;;;;;;23.40;59.00;;;;;;4353659;27;19931;-82
2024/05/04 10:57:03;;;;;;;;;;;23.60;59.10;;;;;;4331369;27;20076;-82
2024/05/04 10:59:23;;;;;;;;;;;23.80;59.20;;;;;;4325344;27;20398;-83
2024/05/04 11:01:43;;;;;;;;;;;23.90;59.10;;;;;;4367522;27;20159;-82
2024/05/04 11:04:03;;;;;;;;;;;24.10;58.70;;;;;;4367638;26;19931;-84
2024/05/04 11:06:22;;;;;;;;;;;24.30;58.60;;;;;;4348298;27;19996;-83
2024/05/04 11:08:42;;;;;;;;;;;24.40;58.80;;;;;;4354952;27;19986;-83
2024/05/04 11:11:01;;;;;;;;;;;24.60;58.80;;;;;;4329696;27;19931;-84
2024/05/04 11:13:22;;;;;;;;;;;24.80;58.70;;;;;;4351996;27;20003;-84
2024/05/04 11:15:42;;;;;;;;;;;25.00;58.80;;;;;;4345217;27;19932;-84
2024/05/04 11:18:03;;;;;;;;;;;25.30;59.20;;;;;;4354348;27;19939;-84
2024/05/04 11:20:26;;;;;;;;;;;25.50;59.20;;;;;;4357802;27;19999;-84
2024/05/04 11:22:50;;;;;;;;;;;25.80;57.50;;;;;;4368289;26;19931;-84
2024/05/04 11:25:09;;;;;;;;;;;26.00;58.30;;;;;;4338283;27;19938;-84
2024/05/04 11:27:29;;;;;;;;;;;26.20;57.70;;;;;;4343803;27;20003;-84
2024/05/04 11:29:48;;;;;;;;;;;26.40;57.20;;;;;;4361147;27;19938;-85
2024/05/04 11:32:08;;;;;;;;;;;26.60;57.50;;;;;;4380425;26;19938;-83
2024/05/04 11:34:27;;;;;;;;;;;26.80;57.50;;;;;;4352021;27;19963;-84
2024/05/04 11:36:46;;;;;;;;;;;26.90;57.60;;;;;;4326918;27;19943;-83
2024/05/04 11:39:05;;;;;;;;;;;27.10;58.00;;;;;;4323814;27;19943;-84
2024/05/04 11:41:24;;;;;;;;;;;27.20;57.60;;;;;;4349751;27;19931;-83
2024/05/04 11:43:44;;;;;;;;;;;27.30;57.90;;;;;;4327513;27;19942;-83
2024/05/04 11:46:05;;;;;;;;;;;27.40;57.40;;;;;;4370878;26;19989;-86
2024/05/04 11:48:24;;;;;;;;;;;27.40;57.50;;;;;;4345388;27;20420;-84
2024/05/04 11:50:43;;;;;;;;;;;27.50;56.10;;;;;;4330683;27;20336;-85
2024/05/04 11:53:03;;;;;;;;;;;27.50;55.00;;;;;;4351545;26;20796;-82
2024/05/04 11:55:22;;;;;;;;;;;27.40;53.10;;;;;;4330301;27;20473;-83
2024/05/04 11:57:41;;;;;;;;;;;27.40;54.40;;;;;;4345371;27;19936;-82
2024/05/04 12:00:00;;;;;;;;;;;27.40;55.60;;;;;;4373931;26;19931;-85
2024/05/04 12:02:19;;;;;;;;;;;27.40;55.70;;;;;;4303331;27;19932;-83
2024/05/04 12:04:39;;;;;;;;;;;27.40;54.60;;;;;;4375783;26;20136;-84
2024/05/04 12:06:59;;;;;;;;;;;27.40;54.70;;;;;;4344306;27;19958;-82
2024/05/04 12:09:18;;;;;;;;;;;27.40;54.70;;;;;;4346132;27;20359;-83
2024/05/04 12:11:37;;;;;;;;;;;27.30;54.70;;;;;;4337307;27;19932;-83
2024/05/04 12:13:57;;;;;;;;;;;27.30;54.40;;;;;;4352892;27;20435;-82
2024/05/04 12:16:16;;;;;;;;;;;27.40;55.20;;;;;;4366365;26;20210;-83
2024/05/04 12:18:35;;;;;;;;;;;27.40;54.90;;;;;;4322719;27;19939;-82
2024/05/04 12:20:54;;;;;;;;;;;27.50;55.80;;;;;;4303339;27;19936;-84
2024/05/04 12:23:14;;;;;;;;;;;27.60;54.60;;;;;;4359911;26;19983;-83
2024/05/04 12:25:33;;;;;;;;;;;27.70;55.30;;;;;;4327621;27;19936;-84
2024/05/04 12:27:52;;;;;;;;;;;27.70;55.30;;;;;;4349693;26;19931;-84
2024/05/04 12:30:12;;;;;;;;;;;27.80;54.60;;;;;;4352404;27;20404;-83
2024/05/04 12:32:32;;;;;;;;;;;27.90;55.20;;;;;;4334924;26;19932;-84
2024/05/04 12:34:51;;;;;;;;;;;27.90;55.40;;;;;;4329096;27;19947;-83
2024/05/04 12:37:11;;;;;;;;;;;28.00;54.30;;;;;;4362457;26;19947;-84
2024/05/04 12:39:30;;;;;;;;;;;28.10;54.40;;;;;;4351506;27;20006;-83
2024/05/04 12:41:49;;;;;;;;;;;28.10;55.10;;;;;;4334211;27;20193;-85
